Time;durP1;ratioP1;P1;durP2;ratioP2;P2;SDS_P1;SDS_P2;PMS_P1;PMS_P2;Temp;Humidity;BMP_temperature;BMP_pressure;BME280_temperature;BME280_humidity;BME280_pressure;Samples;Min_cycle;Max_cycle;Signal;HPM_P1;HPM_P2
2021/12/08 00:00:34;;;;;;;4.20;2.00;;;;;;;7.38;100.00;99114.22;5256972;28;20433;-72
2021/12/08 00:03:07;;;;;;;4.57;1.80;;;;;;;7.34;100.00;99112.91;5255674;28;20067;-71
2021/12/08 00:05:43;;;;;;;;;;;;;;;7.98;100.00;99092.59;5257793;28;20056;-72
2021/12/08 00:08:17;;;;;;;3.88;1.85;;;;;;;7.49;100.00;99089.72;5257295;28;19920;-73
2021/12/08 00:13:23;;;;;;;3.50;1.70;;;;;;;7.07;100.00;99082.59;5256798;28;20029;-71
2021/12/08 00:15:59;;;;;;;5.30;2.10;;;;;;;6.60;100.00;99076.81;5257365;28;20060;-72
2021/12/08 00:18:33;;;;;;;5.63;1.77;;;;;;;6.48;100.00;99079.63;5256338;28;20029;-71
2021/12/08 00:21:08;;;;;;;3.45;1.67;;;;;;;6.50;100.00;99074.25;5255995;28;20040;-72
2021/12/08 00:23:39;;;;;;;5.72;2.30;;;;;;;6.55;100.00;99083.28;5256169;28;20148;-73
2021/12/08 00:26:11;;;;;;;4.97;1.70;;;;;;;6.55;100.00;99095.44;5256705;28;20419;-71
2021/12/08 00:28:42;;;;;;;4.05;1.50;;;;;;;6.52;100.00;99099.19;5255021;28;20048;-71
2021/12/08 00:31:13;;;;;;;4.13;1.58;;;;;;;6.56;100.00;99107.50;5256839;28;20025;-74
2021/12/08 00:33:46;;;;;;;8.73;1.90;;;;;;;6.55;100.00;99101.50;5257524;28;20051;-71
2021/12/08 00:36:20;;;;;;;4.63;1.80;;;;;;;6.61;100.00;99089.66;5254918;28;20312;-71
2021/12/08 00:38:51;;;;;;;3.50;1.75;;;;;;;6.63;100.00;99087.75;5256055;28;20478;-74
2021/12/08 00:41:23;;;;;;;3.72;1.83;;;;;;;6.71;100.00;99085.22;5256686;28;20075;-72
2021/12/08 00:43:54;;;;;;;3.45;1.60;;;;;;;6.70;100.00;99093.16;5256396;28;20124;-71
2021/12/08 00:46:25;;;;;;;4.50;1.83;;;;;;;6.73;100.00;99101.47;5255675;28;20037;-71
2021/12/08 00:48:57;;;;;;;4.97;1.90;;;;;;;6.73;100.00;99098.06;5256322;28;20028;-71
2021/12/08 00:51:28;;;;;;;3.17;1.50;;;;;;;6.72;100.00;99091.22;5256575;28;20059;-71
2021/12/08 00:54:00;;;;;;;3.28;1.65;;;;;;;6.73;100.00;99090.25;5253979;28;20131;-72
2021/12/08 00:56:32;;;;;;;3.30;1.63;;;;;;;6.74;100.00;99091.88;5252611;28;20513;-71
2021/12/08 00:59:03;;;;;;;3.42;1.30;;;;;;;6.77;100.00;99096.81;5255037;28;20032;-74
2021/12/08 01:01:34;;;;;;;4.43;1.83;;;;;;;6.79;100.00;99123.50;5255140;28;20048;-73
2021/12/08 01:04:07;;;;;;;3.70;1.60;;;;;;;6.79;100.00;99115.72;5256028;28;20036;-71
2021/12/08 01:06:39;;;;;;;3.90;1.50;;;;;;;6.82;100.00;99116.22;5256099;28;20506;-72
2021/12/08 01:09:12;;;;;;;4.90;1.30;;;;;;;6.83;100.00;99135.25;5255492;28;20171;-74
2021/12/08 01:11:43;;;;;;;2.85;1.33;;;;;;;6.87;100.00;99127.97;5256033;28;20036;-72
2021/12/08 01:14:15;;;;;;;5.65;1.90;;;;;;;6.86;100.00;99124.56;5256120;28;20017;-72
2021/12/08 01:16:47;;;;;;;6.70;1.70;;;;;;;6.89;100.00;99139.84;5256228;28;20028;-72
2021/12/08 01:19:19;;;;;;;3.92;1.70;;;;;;;6.96;100.00;99133.09;5254884;28;20017;-71
2021/12/08 01:21:52;;;;;;;3.67;1.38;;;;;;;6.96;100.00;99140.91;5255884;28;20433;-73
2021/12/08 01:24:23;;;;;;;4.68;2.13;;;;;;;6.98;100.00;99136.38;5255154;28;20520;-72
2021/12/08 01:26:55;;;;;;;2.45;1.30;;;;;;;7.00;100.00;99137.03;5254769;28;20037;-71
2021/12/08 01:29:26;;;;;;;4.50;1.77;;;;;;;7.02;100.00;99147.31;5255951;28;20025;-74
2021/12/08 01:31:57;;;;;;;6.18;2.08;;;;;;;7.03;100.00;99135.94;5256002;28;20032;-72
2021/12/08 01:34:29;;;;;;;3.47;1.50;;;;;;;7.09;100.00;99147.56;5254646;28;20029;-74
2021/12/08 01:37:01;;;;;;;4.13;1.50;;;;;;;7.06;100.00;99159.06;5254145;28;20053;-74
2021/12/08 01:39:32;;;;;;;3.97;1.60;;;;;;;7.06;100.00;99153.88;5255295;28;20078;-72
2021/12/08 01:42:06;;;;;;;3.40;1.75;;;;;;;7.10;100.00;99151.78;5254522;28;20515;-75
2021/12/08 01:47:28;;;;;;;4.07;1.58;;;;;;;7.11;100.00;99161.22;5255075;28;19920;-72
2021/12/08 01:49:59;;;;;;;6.15;1.83;;;;;;;7.09;100.00;99163.16;5253798;28;20041;-72
2021/12/08 01:52:31;;;;;;;4.93;2.00;;;;;;;7.09;100.00;99153.56;5255749;28;20044;-72
2021/12/08 01:55:03;;;;;;;4.30;1.98;;;;;;;7.15;100.00;99171.19;5254318;28;20029;-72
2021/12/08 01:57:35;;;;;;;4.40;1.90;;;;;;;7.16;100.00;99169.41;5237161;28;20036;-71
2021/12/08 02:00:15;;;;;;;5.38;2.33;;;;;;;7.26;100.00;99172.75;5255082;28;20044;-71
2021/12/08 02:02:46;;;;;;;7.25;2.00;;;;;;;7.20;100.00;99168.97;5253945;28;20048;-71
2021/12/08 02:05:18;;;;;;;6.38;1.75;;;;;;;7.15;100.00;99178.19;5254807;28;20553;-71
2021/12/08 02:07:50;;;;;;;8.02;1.92;;;;;;;7.19;100.00;99177.72;5254557;28;20041;-71
2021/12/08 02:10:25;;;;;;;7.50;1.80;;;;;;;7.21;100.00;99177.59;5254119;28;20024;-71
2021/12/08 02:12:57;;;;;;;4.93;2.10;;;;;;;7.20;100.00;99189.00;5254043;28;20052;-71
2021/12/08 02:15:28;;;;;;;8.82;2.00;;;;;;;7.25;100.00;99186.75;5254860;28;20486;-71
2021/12/08 02:17:59;;;;;;;6.97;2.20;;;;;;;7.20;100.00;99191.59;5254575;28;20090;-71
2021/12/08 02:20:31;;;;;;;4.65;1.58;;;;;;;7.22;100.00;99193.06;5253208;28;20025;-71
2021/12/08 02:23:03;;;;;;;4.72;1.70;;;;;;;7.21;100.00;99198.44;5254573;28;20375;-71
2021/12/08 02:25:35;;;;;;;9.27;1.88;;;;;;;7.25;100.00;99207.59;5254080;28;20083;-71
2021/12/08 02:28:09;;;;;;;4.43;1.80;;;;;;;7.23;100.00;99209.50;5254668;28;20017;-71
2021/12/08 02:30:49;;;;;;;8.70;1.80;;;;;;;7.23;100.00;99202.50;5253166;28;20037;-71
2021/12/08 02:47:54;;;;;;;11.00;2.30;;;;;;;7.03;100.00;99198.41;5252835;28;20953;-71
2021/12/08 02:50:31;;;;;;;5.25;1.70;;;;;;;7.01;100.00;99216.81;5253932;28;20044;-71
2021/12/08 02:53:04;;;;;;;7.25;1.80;;;;;;;7.01;100.00;99229.00;5254313;28;20025;-71
2021/12/08 02:55:36;;;;;;;8.88;2.03;;;;;;;7.05;100.00;99225.16;5253632;28;20634;-71
2021/12/08 02:58:08;;;;;;;6.43;1.92;;;;;;;7.06;100.00;99218.97;5253958;28;20028;-71
2021/12/08 03:00:51;;;;;;;6.75;1.63;;;;;;;7.10;100.00;99211.69;5252980;28;20043;-71
2021/12/08 03:03:22;;;;;;;5.35;1.65;;;;;;;7.08;100.00;99222.22;5253674;28;20033;-71
2021/12/08 03:05:54;;;;;;;4.22;1.75;;;;;;;7.09;100.00;99216.06;5252040;28;20483;-71
2021/12/08 03:08:25;;;;;;;6.68;2.00;;;;;;;7.09;100.00;99226.47;5253442;28;20048;-71
2021/12/08 03:10:58;;;;;;;8.32;2.28;;;;;;;7.11;100.00;99221.13;5253785;28;20102;-71
2021/12/08 03:13:31;;;;;;;5.80;1.80;;;;;;;7.16;100.00;99219.72;5252721;28;20028;-71
2021/12/08 03:16:04;;;;;;;9.85;2.10;;;;;;;7.11;100.00;99219.31;5253622;28;20397;-71
2021/12/08 03:18:37;;;;;;;7.10;1.90;;;;;;;7.16;100.00;99234.50;5253146;28;20405;-71
2021/12/08 03:21:10;;;;;;;6.20;2.15;;;;;;;7.10;100.00;99229.91;5253056;28;20368;-71
2021/12/08 03:24:07;;;;;;;5.38;1.50;;;;;;;7.13;100.00;99237.44;5253972;28;20039;-71
2021/12/08 03:26:48;;;;;;;6.93;1.75;;;;;;;7.17;100.00;99247.41;5236027;28;20048;-71
2021/12/08 03:29:27;;;;;;;7.63;1.52;;;;;;;7.15;100.00;99249.31;5253747;28;20024;-71
2021/12/08 03:32:06;;;;;;;7.72;1.95;;;;;;;7.15;100.00;99253.72;5235533;28;20108;-71
2021/12/08 03:34:42;;;;;;;6.28;1.60;;;;;;;7.14;100.00;99252.06;5250981;28;20474;-72
2021/12/08 03:37:13;;;;;;;7.95;2.03;;;;;;;6.89;100.00;99249.19;5252730;28;20445;-71
2021/12/08 03:39:45;;;;;;;5.15;1.40;;;;;;;6.88;100.00;99250.16;5253528;28;20039;-71
2021/12/08 03:42:23;;;;;;;7.32;1.55;;;;;;;6.86;100.00;99252.13;5235802;28;20016;-71
2021/12/08 03:44:57;;;;;;;7.35;2.13;;;;;;;6.81;100.00;99246.50;5234819;28;20102;-71
2021/12/08 03:47:29;;;;;;;5.57;1.70;;;;;;;6.78;100.00;99246.78;5249682;28;20063;-71
2021/12/08 03:50:03;;;;;;;7.57;1.40;;;;;;;6.75;100.00;99240.09;5251424;28;20124;-71
2021/12/08 03:52:37;;;;;;;7.68;1.52;;;;;;;6.68;100.00;99253.84;5253006;28;20025;-71
2021/12/08 03:55:13;;;;;;;7.00;1.52;;;;;;;6.70;100.00;99254.50;5252041;28;20035;-71
2021/12/08 03:57:44;;;;;;;6.32;1.65;;;;;;;6.80;100.00;99268.28;5253333;28;20039;-71
2021/12/08 04:00:22;;;;;;;8.57;1.65;;;;;;;6.85;100.00;99254.84;5253379;28;20021;-71
2021/12/08 04:02:53;;;;;;;4.80;1.40;;;;;;;6.74;100.00;99258.44;5251998;28;20029;-71
2021/12/08 04:05:51;;;;;;;6.13;1.33;;;;;;;6.69;100.00;99263.28;5252910;28;20029;-71
2021/12/08 04:08:53;;;;;;;6.22;1.85;;;;;;;6.71;100.00;99270.00;5253524;28;20078;-71
2021/12/08 04:11:26;;;;;;;7.38;1.75;;;;;;;6.64;100.00;99270.72;5253343;28;20024;-71
2021/12/08 04:14:01;;;;;;;;;;;;;;;7.12;100.00;99262.63;5252808;28;20030;-71
2021/12/08 04:16:40;;;;;;;6.05;1.63;;;;;;;6.65;100.00;99262.75;5253519;28;19923;-71
2021/12/08 04:19:12;;;;;;;7.60;1.58;;;;;;;6.53;100.00;99269.09;5252717;28;20482;-71
2021/12/08 04:21:46;;;;;;;7.40;1.70;;;;;;;6.51;100.00;99271.84;5252426;28;20029;-71
2021/12/08 04:24:18;;;;;;;7.93;2.10;;;;;;;6.44;100.00;99273.38;5253115;28;20056;-71
2021/12/08 04:26:55;;;;;;;8.73;2.08;;;;;;;6.47;100.00;99277.47;5252846;28;20108;-71
2021/12/08 04:29:30;;;;;;;6.38;1.90;;;;;;;6.43;100.00;99292.53;5255002;28;20578;-71
2021/12/08 04:32:03;;;;;;;8.15;1.55;;;;;;;6.34;100.00;99291.63;5256342;28;20111;-71
2021/12/08 04:34:39;;;;;;;7.00;1.90;;;;;;;6.41;100.00;99302.28;5256689;28;20028;-71
2021/12/08 04:37:19;;;;;;;6.47;1.67;;;;;;;6.34;100.00;99285.59;5255489;28;20025;-71
2021/12/08 04:42:43;;;;;;;6.55;1.40;;;;;;;6.24;100.00;99290.81;5256969;28;20032;-71
2021/12/08 04:45:24;;;;;;;6.03;1.80;;;;;;;6.22;100.00;99277.13;5256760;28;20138;-71
2021/12/08 05:05:37;;;;;;;7.20;1.50;;;;;;;6.06;100.00;99297.69;5255585;28;20071;-71
2021/12/08 05:08:16;;;;;;;6.47;2.08;;;;;;;6.07;100.00;99314.94;5254596;28;20021;-71
2021/12/08 05:10:50;;;;;;;6.65;2.15;;;;;;;6.11;100.00;99308.50;5255783;28;20502;-71
2021/12/08 05:13:21;;;;;;;4.70;1.60;;;;;;;6.09;100.00;99307.81;5255759;28;21151;-71
2021/12/08 05:15:56;;;;;;;7.43;1.63;;;;;;;6.20;100.00;99312.03;5256201;28;20024;-71
2021/12/08 05:18:35;;;;;;;4.63;1.50;;;;;;;6.23;100.00;99307.38;5254502;28;20086;-71
2021/12/08 05:21:17;;;;;;;6.07;1.48;;;;;;;6.27;100.00;99310.53;5255299;28;20021;-71
2021/12/08 05:24:03;;;;;;;6.35;1.60;;;;;;;6.32;100.00;99314.31;5255299;28;20025;-71
2021/12/08 05:26:49;;;;;;;5.88;1.65;;;;;;;6.25;100.00;99312.44;5254711;28;20060;-71
2021/12/08 05:29:26;;;;;;;5.20;1.60;;;;;;;6.25;100.00;99322.81;5254928;28;20024;-71
2021/12/08 05:31:58;;;;;;;9.13;2.05;;;;;;;6.17;100.00;99317.50;5254936;28;20040;-71
2021/12/08 05:34:31;;;;;;;9.40;1.70;;;;;;;6.20;100.00;99320.66;5254609;28;20517;-71
2021/12/08 05:37:04;;;;;;;7.27;1.70;;;;;;;6.19;100.00;99316.41;5253205;28;20959;-71
2021/12/08 05:39:37;;;;;;;8.48;2.10;;;;;;;6.13;100.00;99331.75;5254537;28;20417;-71
2021/12/08 05:42:13;;;;;;;6.68;2.03;;;;;;;6.15;100.00;99335.88;5255214;28;20031;-71
2021/12/08 05:44:44;;;;;;;9.00;2.13;;;;;;;6.13;100.00;99336.94;5254280;28;20052;-71
2021/12/08 05:47:28;;;;;;;11.43;2.08;;;;;;;6.21;100.00;99339.66;5254308;28;20029;-71
2021/12/08 05:49:59;;;;;;;;;;;;;;;6.53;100.00;99347.16;5255905;28;20028;-71
2021/12/08 05:52:31;;;;;;;9.93;2.17;;;;;;;6.18;100.00;99339.97;5255009;28;20416;-71
2021/12/08 05:55:04;;;;;;;9.95;2.00;;;;;;;6.16;100.00;99344.47;5253790;28;20357;-71
2021/12/08 05:57:41;;;;;;;12.15;2.22;;;;;;;6.12;100.00;99335.31;5254441;28;20021;-71
2021/12/08 06:00:22;;;;;;;9.23;1.80;;;;;;;6.14;100.00;99341.19;5255090;28;20410;-71
2021/12/08 06:02:55;;;;;;;7.30;1.90;;;;;;;6.06;100.00;99342.72;5254179;28;20045;-71
2021/12/08 06:05:28;;;;;;;8.63;2.08;;;;;;;6.09;100.00;99360.63;5253620;28;20107;-70
2021/12/08 06:07:59;;;;;;;10.35;1.65;;;;;;;6.06;100.00;99350.53;5254501;28;20154;-71
2021/12/08 06:10:34;;;;;;;9.32;2.13;;;;;;;6.09;100.00;99360.63;5254748;28;20120;-71
2021/12/08 06:13:08;;;;;;;10.30;2.60;;;;;;;6.05;100.00;99368.84;5253333;28;20029;-71
2021/12/08 06:15:43;;;;;;;14.02;2.88;;;;;;;6.00;100.00;99360.63;5254311;28;20021;-71
2021/12/08 06:18:20;;;;;;;10.10;1.88;;;;;;;5.98;100.00;99365.97;5254024;28;20060;-70
2021/12/08 06:20:57;;;;;;;11.02;2.45;;;;;;;5.97;100.00;99368.72;5254855;28;20085;-70
2021/12/08 06:23:28;;;;;;;9.55;2.03;;;;;;;5.92;100.00;99384.72;5253343;28;20061;-71
2021/12/08 06:26:00;;;;;;;8.63;1.88;;;;;;;5.88;100.00;99379.91;5254122;28;20115;-71
2021/12/08 06:28:32;;;;;;;8.32;1.85;;;;;;;5.86;100.00;99377.44;5254250;28;20021;-71
2021/12/08 06:31:05;;;;;;;9.20;2.38;;;;;;;5.83;100.00;99391.53;5253134;28;20062;-70
2021/12/08 06:33:37;;;;;;;10.55;2.20;;;;;;;5.79;100.00;99378.91;5253834;28;20060;-71
2021/12/08 06:36:16;;;;;;;7.72;2.33;;;;;;;5.89;100.00;99386.75;5254247;28;20513;-71
2021/12/08 06:38:49;;;;;;;11.18;2.53;;;;;;;5.76;100.00;99380.03;5253016;28;20044;-71
2021/12/08 06:41:25;;;;;;;7.38;1.88;;;;;;;5.84;100.00;99385.38;5253877;28;20071;-71
2021/12/08 06:44:02;;;;;;;11.52;2.10;;;;;;;5.78;100.00;99372.91;5253791;28;20045;-71
2021/12/08 06:46:33;;;;;;;8.93;2.55;;;;;;;5.62;100.00;99351.84;5252985;28;20288;-71
2021/12/08 06:49:07;;;;;;;9.15;2.17;;;;;;;5.71;100.00;99369.19;5252826;28;20036;-71
2021/12/08 06:51:44;;;;;;;12.68;2.47;;;;;;;5.66;100.00;99376.59;5253055;28;20570;-71
2021/12/08 06:54:21;;;;;;;12.77;2.35;;;;;;;5.65;100.00;99381.94;5252809;28;20021;-71
2021/12/08 06:56:57;;;;;;;10.73;2.50;;;;;;;5.59;100.00;99391.06;5253576;28;20466;-71
2021/12/08 06:59:34;;;;;;;7.82;2.05;;;;;;;5.56;100.00;99378.34;5253804;28;20041;-70
2021/12/08 07:02:17;;;;;;;13.07;2.58;;;;;;;5.59;100.00;99385.88;5253833;28;20036;-71
2021/12/08 07:04:57;;;;;;;11.73;2.10;;;;;;;5.55;100.00;99385.31;5253803;28;20043;-70
2021/12/08 07:07:31;;;;;;;11.27;2.22;;;;;;;5.55;100.00;99400.91;5253943;28;20021;-71
2021/12/08 07:10:22;;;;;;;13.00;1.90;;;;;;;5.56;100.00;99396.53;5249454;28;20064;-70
2021/12/08 07:13:10;;;;;;;7.03;1.80;;;;;;;5.54;100.00;99412.25;5250626;28;20032;-71
2021/12/08 07:15:50;;;;;;;9.95;2.08;;;;;;;5.46;100.00;99421.69;5253788;28;20897;-70
2021/12/08 07:18:27;;;;;;;7.65;2.22;;;;;;;5.40;100.00;99424.78;5253339;28;20086;-70
2021/12/08 07:21:02;;;;;;;11.35;2.10;;;;;;;5.37;100.00;99431.06;5252572;28;20035;-70
2021/12/08 07:23:43;;;;;;;14.07;2.50;;;;;;;5.44;100.00;99439.16;5252697;28;20024;-71
2021/12/08 07:26:22;;;;;;;13.77;2.20;;;;;;;5.34;100.00;99436.50;5251966;28;20031;-70
2021/12/08 07:28:55;;;;;;;9.27;2.20;;;;;;;5.26;100.00;99447.56;5252339;28;20072;-71
2021/12/08 07:31:34;;;;;;;12.05;2.40;;;;;;;5.28;100.00;99444.84;5246802;28;20382;-70
2021/12/08 07:34:15;;;;;;;8.30;1.92;;;;;;;5.27;100.00;99456.19;5252162;28;20025;-71
2021/12/08 07:36:52;;;;;;;10.30;2.50;;;;;;;5.22;100.00;99453.13;5234036;28;20467;-70
2021/12/08 07:39:27;;;;;;;9.40;2.00;;;;;;;5.20;100.00;99468.88;5249500;28;20055;-70
2021/12/08 07:42:10;;;;;;;10.63;2.35;;;;;;;5.29;100.00;99470.66;5252605;28;20017;-70
2021/12/08 07:44:42;;;;;;;8.20;1.90;;;;;;;5.24;100.00;99472.84;5253320;28;20053;-70
2021/12/08 07:47:15;;;;;;;9.15;1.95;;;;;;;5.31;100.00;99473.16;5251963;28;20433;-71
2021/12/08 07:49:53;;;;;;;11.27;2.75;;;;;;;5.33;100.00;99474.66;5252458;28;20112;-70
2021/12/08 07:52:33;;;;;;;12.18;2.53;;;;;;;5.34;100.00;99478.91;5249448;28;20020;-70
2021/12/08 07:55:09;;;;;;;9.25;2.28;;;;;;;5.44;100.00;99480.72;5250011;28;20391;-70
2021/12/08 07:57:42;;;;;;;9.65;2.15;;;;;;;5.37;100.00;99477.81;5253855;28;20057;-69
2021/12/08 08:00:19;;;;;;;10.68;2.65;;;;;;;5.49;100.00;99475.94;5252733;28;20033;-69
2021/12/08 08:02:51;;;;;;;11.60;2.72;;;;;;;5.44;100.00;99476.34;5253974;28;20039;-69
2021/12/08 08:05:32;;;;;;;11.63;2.45;;;;;;;5.55;100.00;99471.03;5257221;28;20063;-69
2021/12/08 08:08:07;;;;;;;9.70;1.95;;;;;;;5.58;100.00;99475.16;5256567;28;20112;-69
2021/12/08 08:10:43;;;;;;;10.73;2.35;;;;;;;5.61;100.00;99480.91;5257419;28;20028;-69
2021/12/08 08:13:18;;;;;;;9.02;2.10;;;;;;;5.56;100.00;99493.47;5256820;28;20029;-69
2021/12/08 08:15:54;;;;;;;10.75;2.38;;;;;;;5.63;100.00;99492.94;5257872;28;20485;-69
2021/12/08 08:18:28;;;;;;;12.07;2.60;;;;;;;5.58;100.00;99491.56;5257240;28;20036;-69
2021/12/08 08:21:06;;;;;;;8.80;2.28;;;;;;;5.68;100.00;99489.00;5257988;28;20513;-69
2021/12/08 08:23:38;;;;;;;8.50;2.28;;;;;;;5.66;100.00;99483.13;5258804;28;20034;-69
2021/12/08 08:26:11;;;;;;;8.55;2.40;;;;;;;5.73;100.00;99497.22;5256190;28;20032;-69
2021/12/08 08:28:48;;;;;;;7.97;1.98;;;;;;;5.71;100.00;99493.09;5256072;28;20040;-69
2021/12/08 08:31:25;;;;;;;8.38;2.10;;;;;;;5.75;100.00;99490.09;5256288;28;20387;-69
2021/12/08 08:33:57;;;;;;;7.28;1.70;;;;;;;5.75;100.00;99486.69;5257081;28;20052;-69
2021/12/08 08:36:39;;;;;;;9.85;2.58;;;;;;;5.85;100.00;99483.16;5257155;28;20280;-69
2021/12/08 08:39:15;;;;;;;6.55;1.77;;;;;;;5.83;100.00;99471.25;5256902;28;20025;-69
2021/12/08 08:42:01;;;;;;;8.20;2.13;;;;;;;5.86;100.00;99465.78;5257308;28;20027;-69
2021/12/08 08:44:41;;;;;;;10.88;2.20;;;;;;;5.76;100.00;99462.38;5257415;28;20135;-69
2021/12/08 08:47:18;;;;;;;6.32;1.75;;;;;;;5.80;100.00;99458.53;5257098;28;20029;-69
2021/12/08 08:49:50;;;;;;;9.63;2.28;;;;;;;5.71;100.00;99456.72;5248054;28;20028;-69
2021/12/08 08:52:33;;;;;;;8.48;1.90;;;;;;;5.78;100.00;99456.06;5257165;28;20551;-69
2021/12/08 08:55:10;;;;;;;9.23;2.10;;;;;;;5.79;100.00;99454.28;5256585;28;20305;-69
2021/12/08 08:57:43;;;;;;;13.88;2.30;;;;;;;5.68;100.00;99465.59;5256182;28;20556;-69
2021/12/08 09:00:22;;;;;;;10.57;2.33;;;;;;;5.79;100.00;99472.47;5256731;28;20028;-69
2021/12/08 09:02:54;;;;;;;5.50;1.58;;;;;;;5.66;100.00;99469.31;5257041;28;20033;-69
2021/12/08 09:05:36;;;;;;;12.30;2.35;;;;;;;5.79;100.00;99467.28;5255405;28;20497;-69
2021/12/08 09:08:09;;;;;;;9.02;2.40;;;;;;;5.71;100.00;99474.91;5255490;28;20036;-69
2021/12/08 09:11:16;;;;;;;9.02;2.15;;;;;;;5.81;100.00;99480.97;5254363;28;20068;-69
2021/12/08 09:14:19;;;;;;;9.23;1.65;;;;;;;5.83;100.00;99471.25;5252780;28;20123;-69
2021/12/08 09:16:57;;;;;;;8.15;2.08;;;;;;;5.73;100.00;99484.25;5254442;28;20037;-69
2021/12/08 09:19:35;;;;;;;7.18;1.73;;;;;;;5.71;100.00;99480.13;5255877;28;20074;-69
2021/12/08 09:22:21;;;;;;;7.45;1.92;;;;;;;5.77;100.00;99474.41;5255783;28;20029;-69
2021/12/08 09:25:18;;;;;;;7.03;1.52;;;;;;;5.74;100.00;99488.47;5255814;28;20501;-69
2021/12/08 09:27:53;;;;;;;9.75;1.98;;;;;;;5.78;100.00;99494.22;5255132;28;20112;-69
2021/12/08 09:30:38;;;;;;;7.95;2.42;;;;;;;5.85;100.00;99497.94;5255890;28;20021;-69
2021/12/08 09:33:18;;;;;;;11.55;2.08;;;;;;;5.81;100.00;99507.78;5255554;28;20429;-69
2021/12/08 09:35:56;;;;;;;8.60;1.73;;;;;;;5.92;100.00;99513.84;5256044;28;20501;-70
2021/12/08 09:38:33;;;;;;;14.73;2.22;;;;;;;5.94;100.00;99512.75;5253510;28;20096;-70
2021/12/08 09:41:10;;;;;;;10.77;2.08;;;;;;;6.02;100.00;99515.53;5255158;28;20025;-70
2021/12/08 09:43:50;;;;;;;8.18;1.65;;;;;;;6.16;100.00;99519.53;5256055;28;20119;-70
2021/12/08 09:46:34;;;;;;;7.93;1.70;;;;;;;6.23;100.00;99501.59;5253978;28;20744;-70
2021/12/08 09:49:09;;;;;;;5.78;1.40;;;;;;;6.18;100.00;99514.19;5250507;28;20020;-70
2021/12/08 09:51:41;;;;;;;8.48;1.80;;;;;;;6.23;100.00;99496.41;5255523;28;20120;-70
2021/12/08 09:54:12;;;;;;;6.63;1.92;;;;;;;6.28;100.00;99496.81;5253328;28;20059;-70
2021/12/08 09:56:46;;;;;;;8.38;2.00;;;;;;;6.22;100.00;99498.19;5254809;28;20740;-69
2021/12/08 09:59:20;;;;;;;8.02;1.90;;;;;;;6.30;100.00;99500.09;5253543;28;20025;-70
2021/12/08 10:01:53;;;;;;;9.43;2.38;;;;;;;6.28;100.00;99484.63;5254673;28;20119;-70
2021/12/08 10:04:24;;;;;;;9.93;1.60;;;;;;;6.31;100.00;99492.16;5254524;28;20079;-70
2021/12/08 10:07:00;;;;;;;7.93;1.88;;;;;;;6.38;100.00;99487.25;5253621;28;20021;-70
2021/12/08 10:09:31;;;;;;;3.70;1.33;;;;;;;6.33;100.00;99487.66;5254227;28;20029;-70
2021/12/08 10:12:03;;;;;;;9.38;2.28;;;;;;;6.40;100.00;99485.31;5253465;28;20709;-70
2021/12/08 10:14:35;;;;;;;5.30;1.27;;;;;;;6.41;100.00;99483.56;5254548;28;20465;-70
2021/12/08 10:17:06;;;;;;;8.73;2.22;;;;;;;6.43;100.00;99469.44;5254718;28;20016;-70
2021/12/08 10:19:37;;;;;;;7.30;1.52;;;;;;;6.34;100.00;99452.06;5253013;28;20043;-70
2021/12/08 10:22:20;;;;;;;6.55;1.50;;;;;;;6.56;100.00;99472.59;5255350;28;20021;-70
2021/12/08 10:25:09;;;;;;;6.68;1.58;;;;;;;6.56;100.00;99472.59;5253124;28;20117;-70
2021/12/08 10:28:04;;;;;;;5.00;1.40;;;;;;;6.77;100.00;99464.59;5253558;28;20238;-70
2021/12/08 10:30:45;;;;;;;3.85;1.40;;;;;;;6.52;100.00;99462.59;5254454;28;20104;-70
2021/12/08 10:33:50;;;;;;;6.75;1.60;;;;;;;6.76;100.00;99459.56;5254183;28;20028;-70
2021/12/08 10:36:45;;;;;;;7.60;1.70;;;;;;;6.72;100.00;99450.38;5233685;28;20037;-70
2021/12/08 10:39:24;;;;;;;5.90;1.50;;;;;;;6.73;100.00;99452.03;5254666;28;20290;-70
2021/12/08 10:41:55;;;;;;;7.30;1.40;;;;;;;6.75;100.00;99445.72;5253565;28;20033;-70
2021/12/08 10:44:52;;;;;;;5.05;1.65;;;;;;;7.06;100.00;99448.94;5252563;28;20041;-70
2021/12/08 10:47:39;;;;;;;6.22;1.70;;;;;;;6.83;100.00;99438.03;5254133;28;20111;-70
2021/12/08 10:56:14;;;;;;;9.10;1.20;;;;;;;6.90;100.00;99429.66;5253711;28;20049;-70
2021/12/08 10:58:50;;;;;;;6.78;1.45;;;;;;;6.93;100.00;99444.97;5253870;28;20024;-70
2021/12/08 11:01:24;;;;;;;7.18;1.80;;;;;;;6.95;100.00;99456.91;5252972;28;20025;-70
2021/12/08 11:04:01;;;;;;;6.78;1.70;;;;;;;7.05;100.00;99457.72;5252678;28;20029;-70
2021/12/08 11:06:36;;;;;;;5.85;1.73;;;;;;;7.17;100.00;99473.16;5251287;28;20090;-70
2021/12/08 11:09:27;;;;;;;8.45;1.55;;;;;;;7.37;100.00;99492.97;5253265;28;20163;-70
2021/12/08 11:12:04;;;;;;;8.60;1.75;;;;;;;7.31;100.00;99483.09;5253108;28;20029;-70
2021/12/08 11:14:47;;;;;;;8.45;1.92;;;;;;;7.28;100.00;99491.22;5252294;28;20083;-70
2021/12/08 11:17:27;;;;;;;6.28;1.65;;;;;;;7.25;100.00;99499.31;5253358;28;20155;-70
2021/12/08 11:20:20;;;;;;;3.92;1.50;;;;;;;7.48;100.00;99491.97;5252603;28;20056;-70
2021/12/08 11:23:04;;;;;;;4.50;1.50;;;;;;;7.42;100.00;99490.75;5253014;28;20037;-70
2021/12/08 11:25:45;;;;;;;7.35;1.70;;;;;;;7.53;100.00;99497.56;5252717;28;20033;-70
2021/12/08 11:28:17;;;;;;;6.25;1.67;;;;;;;7.49;100.00;99497.03;5250311;28;20660;-70
2021/12/08 11:30:51;;;;;;;9.23;1.92;;;;;;;7.51;100.00;99508.16;5252700;28;20040;-70
2021/12/08 11:33:24;;;;;;;7.95;1.63;;;;;;;7.59;100.00;99511.81;5251730;28;20028;-70
2021/12/08 11:36:14;;;;;;;6.43;1.60;;;;;;;7.82;100.00;99513.09;5251515;28;20048;-70
2021/12/08 11:38:48;;;;;;;4.03;1.42;;;;;;;7.76;100.00;99516.25;5249737;28;20029;-70
2021/12/08 11:41:37;;;;;;;7.60;1.80;;;;;;;7.76;100.00;99534.50;5256821;28;20024;-70
2021/12/08 11:44:12;;;;;;;5.13;1.33;;;;;;;7.63;100.00;99534.84;5256924;28;20077;-70
2021/12/08 11:46:57;;;;;;;8.48;1.58;;;;;;;7.84;100.00;99536.41;5255569;28;20033;-70
2021/12/08 11:49:28;;;;;;;6.70;1.58;;;;;;;7.71;100.00;99542.78;5253211;28;20317;-71
2021/12/08 11:52:09;;;;;;;6.07;1.50;;;;;;;7.76;100.00;99545.75;5256890;28;20150;-71
2021/12/08 11:55:02;;;;;;;7.20;1.50;;;;;;;7.84;100.00;99552.88;5256062;28;20398;-71
2021/12/08 11:57:37;;;;;;;7.03;1.92;;;;;;;7.78;100.00;99546.44;5256545;28;20045;-71
2021/12/08 12:00:19;;;;;;;7.82;1.30;;;;;;;7.99;100.00;99545.38;5253837;28;20068;-71
2021/12/08 12:02:56;;;;;;;6.90;1.73;;;;;;;7.88;100.00;99543.81;5255125;28;20099;-71
2021/12/08 12:05:35;;;;;;;5.03;1.88;;;;;;;7.90;100.00;99554.91;5254379;28;20056;-71
2021/12/08 12:08:11;;;;;;;5.97;1.60;;;;;;;7.85;100.00;99564.94;5254724;28;20033;-71
2021/12/08 12:10:48;;;;;;;6.00;1.60;;;;;;;7.89;100.00;99566.31;5255920;28;20625;-71
2021/12/08 12:13:20;;;;;;;5.25;1.23;;;;;;;7.85;100.00;99574.56;5254386;28;20024;-71
2021/12/08 12:15:52;;;;;;;3.13;1.40;;;;;;;7.85;100.00;99580.59;5256690;28;20615;-70
2021/12/08 12:18:31;;;;;;;5.35;1.40;;;;;;;7.96;100.00;99588.22;5256554;28;20120;-70
2021/12/08 12:21:21;;;;;;;6.95;1.98;;;;;;;8.02;100.00;99602.47;5256905;28;20055;-71
2021/12/08 12:24:12;;;;;;;10.68;2.08;;;;;;;7.94;100.00;99594.56;5255473;28;20020;-71
2021/12/08 12:26:56;;;;;;;7.35;1.70;;;;;;;7.91;100.00;99606.06;5256141;28;20135;-71
2021/12/08 12:29:45;;;;;;;5.10;1.33;;;;;;;7.93;100.00;99608.56;5256798;28;20380;-71
2021/12/08 12:32:23;;;;;;;5.13;1.80;;;;;;;7.86;100.00;99612.69;5256116;28;20112;-70
2021/12/08 12:35:17;;;;;;;7.95;1.63;;;;;;;7.91;100.00;99613.91;5255809;28;20591;-71
2021/12/08 12:38:03;;;;;;;4.03;1.55;;;;;;;7.89;100.00;99620.25;5256272;28;20405;-71
2021/12/08 12:40:39;;;;;;;7.07;1.75;;;;;;;7.75;100.00;99627.53;5256163;28;20028;-70
2021/12/08 12:43:23;;;;;;;5.20;1.80;;;;;;;7.77;100.00;99606.56;5255507;28;20029;-71
2021/12/08 12:46:03;;;;;;;5.03;1.33;;;;;;;7.79;100.00;99609.84;5255270;28;20443;-70
2021/12/08 12:48:37;;;;;;;5.95;1.50;;;;;;;7.67;100.00;99616.19;5255781;28;20292;-71
2021/12/08 12:51:16;;;;;;;8.38;1.38;;;;;;;7.68;100.00;99623.03;5255988;28;20196;-70
2021/12/08 12:53:56;;;;;;;7.22;1.63;;;;;;;7.63;100.00;99618.25;5255345;28;20071;-71
2021/12/08 12:56:27;;;;;;;4.68;1.45;;;;;;;7.67;100.00;99618.81;5256043;28;20474;-71
2021/12/08 12:59:10;;;;;;;8.60;1.50;;;;;;;7.75;100.00;99605.88;5255983;28;20075;-70
2021/12/08 13:01:46;;;;;;;5.90;1.48;;;;;;;7.61;100.00;99598.50;5255727;28;20279;-70
2021/12/08 13:04:24;;;;;;;5.30;1.40;;;;;;;7.67;100.00;99609.19;5255708;28;20098;-70